createdAt,value
2018-01-15T00:00:19.483Z,3.00
2018-01-15T00:01:19.482Z,4.40
2018-01-15T00:02:19.438Z,4.80
2018-01-15T00:03:19.441Z,3.10
2018-01-15T00:04:19.429Z,3.30
2018-01-15T00:05:19.384Z,3.20
2018-01-15T00:06:19.357Z,4.80
2018-01-15T00:07:19.341Z,4.50
2018-01-15T00:08:19.345Z,4.00
2018-01-15T00:09:19.327Z,5.30
2018-01-15T00:10:19.284Z,4.20
2018-01-15T00:11:19.290Z,6.00
2018-01-15T00:12:19.272Z,3.00
2018-01-15T00:13:19.259Z,3.50
2018-01-15T00:14:19.208Z,3.30
2018-01-15T00:15:19.185Z,3.70
2018-01-15T00:16:19.166Z,4.00
2018-01-15T00:17:19.171Z,4.70
2018-01-15T00:18:19.126Z,5.10
2018-01-15T00:19:19.138Z,5.20
2018-01-15T00:20:19.114Z,3.80
2018-01-15T00:21:19.075Z,4.30
2018-01-15T00:22:19.079Z,5.90
2018-01-15T00:23:19.032Z,5.00
2018-01-15T00:24:19.019Z,4.40
2018-01-15T00:25:18.995Z,6.40
2018-01-15T00:26:18.998Z,5.70
2018-01-15T00:27:18.965Z,4.60
2018-01-15T00:28:18.937Z,5.80
2018-01-15T00:29:18.921Z,5.00
2018-01-15T00:30:18.921Z,5.20
2018-01-15T00:31:18.881Z,4.90
2018-01-15T00:32:18.860Z,6.20
2018-01-15T00:33:18.867Z,5.90
2018-01-15T00:34:18.851Z,5.00
2018-01-15T00:35:18.852Z,5.10
2018-01-15T00:36:18.807Z,5.70
2018-01-15T00:37:18.760Z,5.40
2018-01-15T00:38:18.744Z,5.30
2018-01-15T00:39:18.730Z,7.30
2018-01-15T00:40:18.714Z,5.20
2018-01-15T00:41:18.683Z,5.40
2018-01-15T00:42:18.665Z,5.90
2018-01-15T00:43:18.650Z,6.40
2018-01-15T00:44:18.628Z,5.80
2018-01-15T00:45:18.603Z,5.00
2018-01-15T00:46:18.614Z,5.60
2018-01-15T00:47:18.568Z,5.90
2018-01-15T00:48:18.549Z,7.60
2018-01-15T00:49:18.527Z,6.60
2018-01-15T00:50:18.507Z,5.80
2018-01-15T00:51:18.500Z,6.70
2018-01-15T00:52:18.466Z,7.30
2018-01-15T00:53:18.455Z,7.30
2018-01-15T00:54:18.464Z,7.30
2018-01-15T00:55:18.441Z,6.10
2018-01-15T00:56:18.401Z,6.00
2018-01-15T00:57:18.399Z,5.80
2018-01-15T00:58:18.384Z,6.10
2018-01-15T00:59:18.359Z,6.60
2018-01-15T01:00:18.311Z,5.90
2018-01-15T01:01:18.305Z,6.80
2018-01-15T01:02:18.432Z,5.70
2018-01-15T01:03:18.261Z,6.00
2018-01-15T01:04:18.250Z,6.60
2018-01-15T01:05:18.215Z,6.90
2018-01-15T01:06:18.198Z,6.00
2018-01-15T01:07:18.194Z,6.80
2018-01-15T01:08:18.177Z,7.90
2018-01-15T01:09:18.154Z,7.40
2018-01-15T01:10:18.149Z,5.60
2018-01-15T01:11:18.104Z,6.20
2018-01-15T01:12:18.086Z,6.60
2018-01-15T01:13:18.066Z,5.80
2018-01-15T01:14:18.051Z,7.60
2018-01-15T01:15:18.053Z,5.80
2018-01-15T01:16:18.033Z,6.50
2018-01-15T01:17:17.989Z,6.30
2018-01-15T01:18:17.975Z,5.50
2018-01-15T01:19:17.980Z,7.80
2018-01-15T01:20:17.940Z,7.20
2018-01-15T01:21:17.920Z,5.80
2018-01-15T01:22:17.920Z,6.30
2018-01-15T01:23:17.877Z,5.60
2018-01-15T01:24:17.862Z,6.90
2018-01-15T01:25:17.863Z,5.60
2018-01-15T01:26:17.846Z,8.40
2018-01-15T01:27:17.802Z,7.20
2018-01-15T01:28:17.781Z,6.20
2018-01-15T01:29:17.759Z,6.00
2018-01-15T01:30:17.752Z,7.10
2018-01-15T01:31:17.747Z,6.10
2018-01-15T01:32:17.701Z,5.70
2018-01-15T01:33:17.710Z,5.70
2018-01-15T01:34:17.689Z,4.30
2018-01-15T01:35:17.671Z,4.50
2018-01-15T01:36:17.622Z,5.60
2018-01-15T01:37:17.604Z,4.70
2018-01-15T01:38:17.609Z,5.20
2018-01-15T01:39:17.594Z,5.60
2018-01-15T01:40:17.571Z,4.40
2018-01-15T01:41:17.529Z,5.60
2018-01-15T01:42:17.514Z,4.00
2018-01-15T01:43:17.515Z,4.40
2018-01-15T01:44:17.464Z,4.40
2018-01-15T01:45:17.451Z,4.10
2018-01-15T01:46:17.427Z,3.70
2018-01-15T01:47:17.410Z,3.50
2018-01-15T01:48:17.391Z,4.40
2018-01-15T01:49:17.363Z,3.70
2018-01-15T01:50:17.350Z,5.60
2018-01-15T01:51:17.343Z,4.40
2018-01-15T01:52:17.338Z,4.40
2018-01-15T01:53:17.298Z,5.70
2018-01-15T01:54:17.281Z,4.90
2018-01-15T01:55:17.275Z,4.40
2018-01-15T01:56:17.242Z,4.80
2018-01-15T01:57:17.213Z,4.50
2018-01-15T01:58:17.201Z,4.60
2018-01-15T01:59:17.196Z,4.70
2018-01-15T02:00:17.177Z,4.60
2018-01-15T02:01:17.134Z,6.40
2018-01-15T02:02:17.126Z,4.60
2018-01-15T02:03:17.143Z,4.70
2018-01-15T02:04:17.079Z,9.10
2018-01-15T02:05:17.066Z,5.90
2018-01-15T02:06:17.057Z,5.80
2018-01-15T02:07:17.024Z,5.30
2018-01-15T02:08:17.018Z,5.90
2018-01-15T02:09:16.974Z,5.10
2018-01-15T02:10:17.499Z,7.20
2018-01-15T02:11:16.963Z,7.10
2018-01-15T02:12:16.922Z,6.70
2018-01-15T02:13:16.923Z,5.60
2018-01-15T02:14:16.873Z,4.90
2018-01-15T02:15:16.882Z,5.70
2018-01-15T02:16:16.860Z,5.00
2018-01-15T02:17:16.845Z,5.20
2018-01-15T02:18:16.798Z,5.10
2018-01-15T02:19:16.783Z,5.90
2018-01-15T02:20:16.764Z,5.50
2018-01-15T02:21:16.740Z,9.20
2018-01-15T02:22:16.718Z,6.30
2018-01-15T02:23:16.725Z,8.70
2018-01-15T02:24:16.679Z,5.20
2018-01-15T02:25:16.657Z,5.30
2018-01-15T02:26:16.666Z,7.50
2018-01-15T02:27:16.620Z,5.90
2018-01-15T02:28:16.600Z,5.90
2018-01-15T02:29:16.591Z,7.60
2018-01-15T02:30:16.586Z,5.00
2018-01-15T02:31:16.538Z,6.80
2018-01-15T02:32:16.546Z,5.60
2018-01-15T02:33:16.510Z,6.50
2018-01-15T02:34:16.480Z,5.60
2018-01-15T02:35:16.459Z,5.80
2018-01-15T02:36:16.445Z,6.60
2018-01-15T02:37:16.434Z,8.50
2018-01-15T02:38:16.405Z,8.60
2018-01-15T02:39:16.382Z,9.40
2018-01-15T02:40:16.363Z,9.20
2018-01-15T02:41:16.338Z,8.70
2018-01-15T02:42:16.331Z,8.20
2018-01-15T02:43:16.304Z,5.80
2018-01-15T02:44:16.811Z,6.40
2018-01-15T02:45:16.291Z,7.50
2018-01-15T02:46:16.270Z,6.70
2018-01-15T02:47:16.222Z,8.30
2018-01-15T02:48:16.204Z,8.20
2018-01-15T02:49:16.194Z,6.20
2018-01-15T02:50:16.159Z,7.00
2018-01-15T02:51:16.142Z,4.80
2018-01-15T02:52:16.121Z,7.00
2018-01-15T02:53:16.131Z,5.30
2018-01-15T02:54:16.083Z,5.80
2018-01-15T02:55:16.088Z,6.70
2018-01-15T02:56:16.045Z,6.40
2018-01-15T02:57:16.053Z,4.70
2018-01-15T02:58:16.033Z,4.70
2018-01-15T02:59:16.014Z,5.00
2018-01-15T03:00:15.994Z,5.60
2018-01-15T03:01:15.974Z,5.00
2018-01-15T03:02:15.924Z,4.90
2018-01-15T03:03:15.905Z,7.00
2018-01-15T03:04:15.888Z,8.40
2018-01-15T03:05:15.879Z,6.80
2018-01-15T03:06:15.873Z,7.90
2018-01-15T03:07:15.827Z,5.90
2018-01-15T03:08:15.816Z,6.60
2018-01-15T03:09:15.794Z,8.00
2018-01-15T03:10:15.795Z,6.10
2018-01-15T03:11:15.751Z,7.00
2018-01-15T03:12:15.753Z,5.30
2018-01-15T03:13:15.734Z,5.10
2018-01-15T03:14:15.688Z,8.30
2018-01-15T03:15:15.695Z,5.40
2018-01-15T03:16:15.652Z,5.00
2018-01-15T03:17:15.632Z,5.90
2018-01-15T03:18:15.610Z,5.10
2018-01-15T03:19:15.594Z,5.40
2018-01-15T03:20:15.601Z,6.70
2018-01-15T03:21:15.552Z,4.80
2018-01-15T03:22:15.532Z,4.10
2018-01-15T03:23:15.540Z,4.40
2018-01-15T03:24:15.504Z,6.40
2018-01-15T03:25:15.473Z,4.00
2018-01-15T03:26:15.468Z,4.40
2018-01-15T03:27:15.442Z,5.30
2018-01-15T03:28:15.416Z,6.50
2018-01-15T03:29:15.406Z,5.80
2018-01-15T03:30:15.407Z,6.80
2018-01-15T03:31:15.354Z,6.70
2018-01-15T03:32:15.337Z,4.10
2018-01-15T03:33:15.328Z,7.30
2018-01-15T03:34:15.300Z,10.10
2018-01-15T03:35:15.279Z,5.00
2018-01-15T03:36:15.262Z,4.10
2018-01-15T03:37:15.238Z,6.10
2018-01-15T03:38:15.246Z,4.60
2018-01-15T03:39:15.201Z,4.00
2018-01-15T03:40:15.183Z,4.50
2018-01-15T03:41:15.189Z,6.50
2018-01-15T03:42:15.134Z,4.30
2018-01-15T03:43:15.134Z,4.20
2018-01-15T03:44:15.106Z,4.40
2018-01-15T03:45:15.084Z,4.60
2018-01-15T03:46:15.064Z,3.80
2018-01-15T03:47:15.041Z,4.90
2018-01-15T03:48:15.038Z,5.40
2018-01-15T03:49:15.033Z,4.30
2018-01-15T03:50:14.996Z,4.60
2018-01-15T03:51:14.995Z,4.00
2018-01-15T03:52:14.957Z,4.80
2018-01-15T03:53:14.925Z,4.70
2018-01-15T03:54:14.906Z,6.40
2018-01-15T03:55:14.915Z,5.60
2018-01-15T03:56:14.873Z,7.30
2018-01-15T03:57:14.847Z,5.90
2018-01-15T03:58:14.855Z,5.90
2018-01-15T03:59:14.810Z,4.30
2018-01-15T04:00:14.796Z,7.50
2018-01-15T04:01:14.769Z,3.20
2018-01-15T04:02:14.745Z,4.40
2018-01-15T04:03:14.763Z,6.00
2018-01-15T04:04:14.711Z,4.00
2018-01-15T04:05:14.716Z,4.40
2018-01-15T04:06:14.675Z,3.80
2018-01-15T04:07:14.652Z,2.90
2018-01-15T04:08:14.661Z,2.90
2018-01-15T04:09:14.626Z,4.00
2018-01-15T04:10:15.132Z,3.60
2018-01-15T04:11:14.589Z,2.80
2018-01-15T04:12:14.565Z,3.70
2018-01-15T04:13:14.563Z,3.00
2018-01-15T04:14:14.542Z,5.20
2018-01-15T04:15:14.527Z,2.90
2018-01-15T04:16:14.495Z,4.20
2018-01-15T04:17:14.486Z,2.60
2018-01-15T04:18:14.440Z,2.40
2018-01-15T04:19:14.421Z,6.30
2018-01-15T04:20:14.431Z,3.10
2018-01-15T04:21:14.386Z,2.80
2018-01-15T04:22:14.904Z,3.20
2018-01-15T04:23:14.345Z,3.20
2018-01-15T04:24:14.346Z,4.90
2018-01-15T04:25:14.330Z,3.40
2018-01-15T04:26:14.310Z,2.60
2018-01-15T04:27:14.277Z,2.90
2018-01-15T04:28:14.246Z,2.30
2018-01-15T04:29:14.235Z,2.50
2018-01-15T04:30:14.212Z,2.80
2018-01-15T04:31:14.188Z,2.00
2018-01-15T04:32:14.169Z,2.00
2018-01-15T04:33:14.148Z,2.40
2018-01-15T04:34:14.141Z,2.30
2018-01-15T04:35:14.107Z,2.30
2018-01-15T04:36:14.103Z,2.20
2018-01-15T04:37:14.071Z,1.80
2018-01-15T04:38:14.079Z,2.00
2018-01-15T04:39:14.030Z,1.40
2018-01-15T04:40:14.009Z,2.60
2018-01-15T04:41:13.999Z,1.40
2018-01-15T04:42:13.976Z,1.90
2018-01-15T04:43:13.955Z,1.70
2018-01-15T04:44:13.932Z,3.10
2018-01-15T04:45:13.943Z,2.00
2018-01-15T04:46:13.900Z,1.50
2018-01-15T04:47:13.902Z,1.10
2018-01-15T04:48:13.869Z,2.20
2018-01-15T04:49:13.834Z,1.90
2018-01-15T04:50:13.814Z,1.50
2018-01-15T04:51:13.798Z,1.10
2018-01-15T04:52:13.805Z,1.50
2018-01-15T04:53:13.785Z,1.20
2018-01-15T04:54:13.736Z,1.90
2018-01-15T04:55:13.725Z,1.20
2018-01-15T04:56:13.699Z,1.50
2018-01-15T04:57:13.684Z,1.10
2018-01-15T04:58:13.658Z,2.10
2018-01-15T04:59:13.667Z,2.30
2018-01-15T05:00:13.654Z,1.20
2018-01-15T05:01:13.604Z,1.60
2018-01-15T05:02:13.609Z,1.70
2018-01-15T05:03:13.586Z,1.20
2018-01-15T05:04:13.566Z,1.20
2018-01-15T05:05:13.527Z,2.50
2018-01-15T05:06:13.510Z,1.40
2018-01-15T05:07:13.514Z,2.70
2018-01-15T05:08:13.461Z,2.40
2018-01-15T05:09:13.456Z,1.30
2018-01-15T05:10:13.450Z,1.20
2018-01-15T05:11:13.437Z,1.20
2018-01-15T05:12:13.385Z,1.30
2018-01-15T05:13:13.367Z,1.10
2018-01-15T05:14:13.373Z,1.40
2018-01-15T05:15:13.351Z,1.10
2018-01-15T05:16:13.315Z,1.60
2018-01-15T05:17:13.317Z,1.10
2018-01-15T05:18:13.296Z,1.10
2018-01-15T05:19:13.251Z,1.70
2018-01-15T05:20:13.254Z,2.30
2018-01-15T05:21:13.266Z,1.60
2018-01-15T05:22:13.214Z,2.20
2018-01-15T05:23:13.169Z,1.50
2018-01-15T05:24:13.177Z,1.10
2018-01-15T05:25:13.132Z,1.60
2018-01-15T05:26:13.134Z,1.10
2018-01-15T05:27:13.099Z,1.60
2018-01-15T05:28:13.071Z,1.80
2018-01-15T05:29:13.065Z,0.90
2018-01-15T05:30:13.059Z,1.60
2018-01-15T05:31:13.014Z,1.50
2018-01-15T05:32:13.022Z,1.10
2018-01-15T05:33:12.976Z,1.10
2018-01-15T05:34:12.957Z,1.20
2018-01-15T05:35:12.936Z,2.60
2018-01-15T05:36:12.939Z,1.40
2018-01-15T05:37:12.897Z,2.20
2018-01-15T05:38:12.871Z,1.00
2018-01-15T05:39:12.883Z,1.00
2018-01-15T05:40:12.833Z,1.10
2018-01-15T05:41:12.844Z,1.30
2018-01-15T05:42:12.825Z,2.60
2018-01-15T05:43:12.782Z,1.50
2018-01-15T05:44:12.782Z,1.70
2018-01-15T05:45:12.738Z,2.90
2018-01-15T05:46:12.716Z,2.90
2018-01-15T05:47:12.730Z,1.70
2018-01-15T05:48:12.680Z,1.80
2018-01-15T05:49:12.682Z,1.90
2018-01-15T05:50:12.666Z,1.90
2018-01-15T05:51:12.622Z,1.30
2018-01-15T05:52:12.601Z,1.30
2018-01-15T05:53:12.611Z,1.10
2018-01-15T05:54:12.586Z,2.20
2018-01-15T05:55:12.567Z,1.00
2018-01-15T05:56:12.545Z,1.40
2018-01-15T05:57:12.500Z,1.10
2018-01-15T05:58:12.482Z,2.30
2018-01-15T05:59:12.471Z,1.80
2018-01-15T06:00:12.451Z,2.50
2018-01-15T06:01:12.427Z,0.90
2018-01-15T06:02:12.400Z,1.10
2018-01-15T06:03:12.386Z,1.40
2018-01-15T06:04:12.389Z,1.50
2018-01-15T06:05:12.336Z,1.10
2018-01-15T06:06:12.349Z,1.60
2018-01-15T06:07:12.338Z,1.10
2018-01-15T06:08:12.294Z,1.90
2018-01-15T06:09:12.274Z,1.50
2018-01-15T06:10:12.247Z,1.50
2018-01-15T06:11:12.249Z,2.20
2018-01-15T06:12:12.207Z,1.50
2018-01-15T06:13:12.187Z,1.10
2018-01-15T06:14:12.169Z,1.30
2018-01-15T06:15:12.168Z,1.90
2018-01-15T06:16:12.152Z,1.30
2018-01-15T06:17:12.116Z,1.00
2018-01-15T06:18:12.084Z,1.60
2018-01-15T06:19:12.090Z,1.60
2018-01-15T06:20:12.077Z,1.10
2018-01-15T06:21:12.035Z,1.60
2018-01-15T06:22:12.002Z,1.70
2018-01-15T06:23:11.986Z,1.10
2018-01-15T06:24:11.973Z,2.10
2018-01-15T06:25:11.946Z,1.30
2018-01-15T06:26:11.938Z,1.40
2018-01-15T06:27:11.946Z,1.00
2018-01-15T06:28:11.890Z,2.90
2018-01-15T06:29:11.887Z,1.90
2018-01-15T06:30:11.876Z,1.30
2018-01-15T06:31:11.867Z,1.10
2018-01-15T06:32:11.809Z,1.50
2018-01-15T06:33:11.815Z,1.20
2018-01-15T06:34:11.773Z,1.20
2018-01-15T06:35:11.753Z,1.60
2018-01-15T06:36:11.730Z,1.40
2018-01-15T06:37:11.717Z,1.20
2018-01-15T06:38:11.694Z,2.20
2018-01-15T06:39:11.678Z,1.50
2018-01-15T06:40:11.655Z,1.50
2018-01-15T06:41:11.638Z,1.30
2018-01-15T06:42:11.618Z,1.50
2018-01-15T06:43:11.590Z,1.80
2018-01-15T06:44:11.571Z,1.50
2018-01-15T06:45:11.580Z,1.10
2018-01-15T06:46:11.536Z,1.90
2018-01-15T06:47:11.516Z,2.20
2018-01-15T06:48:11.518Z,1.30
2018-01-15T06:49:11.484Z,4.20
2018-01-15T06:50:11.481Z,1.90
2018-01-15T06:51:11.459Z,2.10
2018-01-15T06:52:11.417Z,1.70
2018-01-15T06:53:11.400Z,1.30
2018-01-15T06:54:11.384Z,1.50
2018-01-15T06:55:11.380Z,3.40
2018-01-15T06:56:11.353Z,1.20
2018-01-15T06:57:11.319Z,1.20
2018-01-15T06:58:11.294Z,1.30
2018-01-15T06:59:11.303Z,1.80
2018-01-15T07:00:11.260Z,0.90
2018-01-15T07:01:11.267Z,3.20
2018-01-15T07:02:11.244Z,0.90
2018-01-15T07:03:11.216Z,1.20
2018-01-15T07:04:11.176Z,1.90
2018-01-15T07:05:11.188Z,2.10
2018-01-15T07:06:11.165Z,1.60
2018-01-15T07:07:11.124Z,1.90
2018-01-15T07:08:11.096Z,1.30
2018-01-15T07:09:11.101Z,2.40
2018-01-15T07:10:11.088Z,0.90
2018-01-15T07:11:11.065Z,2.00
2018-01-15T07:12:11.017Z,1.60
2018-01-15T07:13:11.009Z,1.70
2018-01-15T07:14:10.988Z,2.60
2018-01-15T07:15:10.969Z,1.30
2018-01-15T07:16:10.938Z,2.00
2018-01-15T07:17:10.946Z,1.10
2018-01-15T07:18:10.896Z,1.80
2018-01-15T07:19:10.881Z,1.10
2018-01-15T07:20:11.421Z,1.30
2018-01-15T07:21:10.846Z,1.60
2018-01-15T07:22:10.849Z,1.10
2018-01-15T07:23:10.830Z,2.10
2018-01-15T07:24:10.785Z,1.70
2018-01-15T07:25:10.766Z,2.90
2018-01-15T07:26:10.754Z,2.20
2018-01-15T07:27:10.725Z,3.20
2018-01-15T07:28:10.718Z,2.10
2018-01-15T07:29:10.710Z,2.00
2018-01-15T07:30:10.660Z,2.40
2018-01-15T07:31:10.656Z,2.00
2018-01-15T07:32:10.669Z,1.50
2018-01-15T07:33:10.607Z,1.90
2018-01-15T07:34:10.611Z,1.90
2018-01-15T07:35:10.591Z,1.70
2018-01-15T07:36:10.546Z,2.30
2018-01-15T07:37:10.552Z,3.40
2018-01-15T07:38:10.507Z,2.60
2018-01-15T07:39:10.514Z,2.00
2018-01-15T07:40:10.468Z,1.50
2018-01-15T07:41:10.446Z,4.10
2018-01-15T07:42:10.429Z,1.80
2018-01-15T07:43:10.434Z,2.30
2018-01-15T07:44:10.388Z,1.30
2018-01-15T07:45:10.385Z,1.30
2018-01-15T07:46:10.373Z,1.90
2018-01-15T07:47:10.336Z,1.90
2018-01-15T07:48:10.334Z,2.10
2018-01-15T07:49:10.302Z,1.80
2018-01-15T07:50:10.280Z,1.60
2018-01-15T07:51:10.249Z,1.50
2018-01-15T07:52:10.236Z,1.10
2018-01-15T07:53:10.217Z,2.00
2018-01-15T07:54:10.195Z,1.60
2018-01-15T07:55:10.185Z,2.00
2018-01-15T07:56:10.158Z,5.30
2018-01-15T07:57:10.129Z,2.30
2018-01-15T07:58:10.138Z,2.50
2018-01-15T07:59:10.116Z,1.80
2018-01-15T08:00:10.093Z,3.40
2018-01-15T08:01:10.044Z,3.10
2018-01-15T08:02:10.036Z,1.70
2018-01-15T08:03:10.078Z,3.60
2018-01-15T08:04:10.017Z,1.20
2018-01-15T08:05:09.983Z,2.00
2018-01-15T08:06:09.978Z,1.60
2018-01-15T08:07:09.932Z,2.40
2018-01-15T08:08:09.924Z,3.10
2018-01-15T08:09:09.887Z,2.10
2018-01-15T08:10:09.897Z,2.20
2018-01-15T08:11:09.853Z,2.90
2018-01-15T08:12:09.836Z,2.20
2018-01-15T08:13:09.842Z,2.60
2018-01-15T08:14:09.791Z,2.10
2018-01-15T08:15:09.797Z,2.20
2018-01-15T08:16:09.755Z,1.80
2018-01-15T08:17:09.741Z,1.80
2018-01-15T08:18:09.735Z,1.70
2018-01-15T08:19:09.694Z,2.50
2018-01-15T08:20:09.675Z,2.70
2018-01-15T08:21:09.679Z,2.40
2018-01-15T08:22:09.630Z,2.70
2018-01-15T08:23:09.644Z,2.30
2018-01-15T08:24:09.591Z,2.90
2018-01-15T08:25:09.599Z,1.60
2018-01-15T08:26:09.580Z,2.40
2018-01-15T08:27:09.560Z,2.30
2018-01-15T08:28:09.537Z,4.70
2018-01-15T08:29:09.558Z,2.60
2018-01-15T08:30:09.489Z,2.50
2018-01-15T08:31:09.488Z,3.40
2018-01-15T08:32:09.450Z,3.40
2018-01-15T08:33:09.428Z,2.50
2018-01-15T08:34:09.420Z,3.80
2018-01-15T08:35:09.397Z,2.40
2018-01-15T08:36:09.355Z,1.80
2018-01-15T08:37:09.333Z,3.60
2018-01-15T08:38:09.312Z,2.90
2018-01-15T08:39:09.320Z,5.10
2018-01-15T08:40:09.276Z,2.80
2018-01-15T08:41:09.253Z,6.00
2018-01-15T08:42:09.233Z,3.90
2018-01-15T08:43:09.238Z,3.30
2018-01-15T08:44:09.297Z,3.00
2018-01-15T08:45:09.192Z,2.80
2018-01-15T08:46:09.184Z,2.60
2018-01-15T08:47:09.161Z,4.30
2018-01-15T08:48:09.672Z,3.70
2018-01-15T08:49:09.119Z,4.20
2018-01-15T08:50:09.078Z,4.50
2018-01-15T08:51:09.053Z,3.00
2018-01-15T08:52:09.033Z,2.10
2018-01-15T08:53:09.018Z,3.30
2018-01-15T08:54:09.023Z,2.90
2018-01-15T08:55:08.968Z,3.40
2018-01-15T08:56:08.983Z,4.20
2018-01-15T08:57:08.947Z,2.90
2018-01-15T08:58:08.914Z,3.70
2018-01-15T08:59:08.895Z,3.00
2018-01-15T09:00:08.902Z,3.70
2018-01-15T09:01:08.914Z,3.40
2018-01-15T09:02:08.835Z,3.90
2018-01-15T09:03:08.820Z,3.20
2018-01-15T09:04:08.797Z,3.00
2018-01-15T09:05:08.774Z,3.10
2018-01-15T09:06:08.769Z,4.00
2018-01-15T09:07:08.738Z,3.20
2018-01-15T09:08:08.719Z,3.30
2018-01-15T09:09:08.696Z,3.20
2018-01-15T09:10:08.701Z,3.70
2018-01-15T09:11:08.681Z,2.70
2018-01-15T09:12:08.636Z,2.70
2018-01-15T09:13:08.636Z,3.00
2018-01-15T09:14:08.604Z,3.70
2018-01-15T09:15:08.583Z,3.60
2018-01-15T09:16:08.557Z,2.60
2018-01-15T09:17:08.535Z,2.80
2018-01-15T09:18:08.514Z,3.20
2018-01-15T09:19:08.496Z,3.00
2018-01-15T09:20:08.505Z,2.60
2018-01-15T09:21:08.464Z,2.90
2018-01-15T09:22:08.440Z,3.40
2018-01-15T09:23:08.443Z,2.90
2018-01-15T09:24:08.427Z,3.20
2018-01-15T09:25:08.402Z,3.00
2018-01-15T09:26:08.364Z,2.50
2018-01-15T09:27:08.341Z,2.40
2018-01-15T09:28:08.345Z,3.50
2018-01-15T09:29:08.302Z,2.60
2018-01-15T09:30:08.291Z,2.70
2018-01-15T09:31:08.291Z,2.50
2018-01-15T09:32:08.257Z,2.80
2018-01-15T09:33:08.248Z,2.20
2018-01-15T09:34:08.206Z,2.50
2018-01-15T09:35:08.178Z,2.30
2018-01-15T09:36:08.191Z,2.30
2018-01-15T09:37:08.703Z,2.60
2018-01-15T09:38:08.126Z,2.50
2018-01-15T09:39:08.125Z,2.30
2018-01-15T09:40:08.108Z,2.90
2018-01-15T09:41:08.057Z,3.80
2018-01-15T09:42:08.072Z,2.50
2018-01-15T09:43:08.030Z,4.30
2018-01-15T09:44:08.029Z,2.50
2018-01-15T09:45:08.011Z,2.50
2018-01-15T09:46:07.973Z,3.40
2018-01-15T09:47:07.949Z,2.60
2018-01-15T09:48:07.933Z,2.30
2018-01-15T09:49:07.906Z,2.60
2018-01-15T09:50:07.916Z,4.10
2018-01-15T09:51:07.866Z,2.30
2018-01-15T09:52:07.874Z,2.40
2018-01-15T09:53:07.841Z,2.60
2018-01-15T09:54:07.805Z,2.50
2018-01-15T09:55:07.782Z,2.00
2018-01-15T09:56:07.792Z,2.10
2018-01-15T09:57:07.780Z,3.90
2018-01-15T09:58:07.736Z,2.60
2018-01-15T09:59:07.710Z,2.60
2018-01-15T10:00:07.698Z,3.10
2018-01-15T10:01:07.674Z,2.50
2018-01-15T10:02:07.677Z,2.60
2018-01-15T10:03:07.697Z,1.90
2018-01-15T10:04:07.638Z,2.40
2018-01-15T10:05:07.595Z,2.60
2018-01-15T10:06:07.577Z,2.90
2018-01-15T10:07:07.568Z,2.60
2018-01-15T10:08:07.566Z,3.10
2018-01-15T10:09:07.563Z,3.50
2018-01-15T10:10:07.498Z,3.70
2018-01-15T10:11:07.485Z,2.50
2018-01-15T10:12:07.486Z,2.70
2018-01-15T10:13:07.469Z,2.80
2018-01-15T10:14:07.458Z,2.60
2018-01-15T10:15:07.417Z,3.60
2018-01-15T10:16:07.387Z,2.80
2018-01-15T10:17:07.371Z,3.50
2018-01-15T10:18:07.348Z,2.80
2018-01-15T10:19:07.328Z,2.90
2018-01-15T10:20:07.309Z,3.60
2018-01-15T10:21:07.320Z,3.00
2018-01-15T10:22:07.276Z,4.60
2018-01-15T10:23:07.283Z,3.30
2018-01-15T10:24:07.776Z,4.10
2018-01-15T10:25:07.243Z,4.10
2018-01-15T10:26:07.202Z,3.30
2018-01-15T10:27:07.206Z,5.10
2018-01-15T10:28:07.169Z,3.10
2018-01-15T10:29:07.151Z,3.30
2018-01-15T10:30:07.340Z,4.00
2018-01-15T10:31:07.118Z,3.30
2018-01-15T10:32:07.097Z,3.00
2018-01-15T10:33:07.084Z,2.80
2018-01-15T10:34:07.055Z,2.80
2018-01-15T10:35:07.124Z,2.60
2018-01-15T10:36:07.025Z,3.00
2018-01-15T10:37:07.027Z,3.90
2018-01-15T10:38:06.979Z,5.90
2018-01-15T10:39:06.966Z,2.80
2018-01-15T10:40:06.969Z,3.30
2018-01-15T10:41:06.926Z,3.50
2018-01-15T10:42:06.936Z,3.40
2018-01-15T10:43:06.894Z,3.40
2018-01-15T10:44:06.898Z,5.20
2018-01-15T10:45:06.878Z,2.90
2018-01-15T10:46:06.862Z,3.10
2018-01-15T10:47:06.836Z,3.50
2018-01-15T10:48:06.800Z,6.60
2018-01-15T10:49:06.778Z,2.50
2018-01-15T10:50:06.837Z,2.40
2018-01-15T10:51:06.754Z,2.60
2018-01-15T10:52:06.730Z,2.30
2018-01-15T10:53:06.717Z,2.40
2018-01-15T10:54:06.699Z,2.10
2018-01-15T10:55:06.672Z,3.20
2018-01-15T10:56:06.660Z,3.60
2018-01-15T10:57:40.409Z,3.80
2018-01-15T10:58:06.619Z,2.60
2018-01-15T10:59:06.629Z,2.60
2018-01-15T11:00:06.606Z,3.00
2018-01-15T11:01:06.565Z,2.80
2018-01-15T11:02:06.584Z,2.40
2018-01-15T11:03:06.549Z,2.20
2018-01-15T11:04:06.509Z,3.00
2018-01-15T11:05:06.488Z,3.40
2018-01-15T11:06:06.476Z,4.90
2018-01-15T11:07:06.468Z,3.50
2018-01-15T11:08:06.435Z,3.00
2018-01-15T11:09:06.427Z,2.60
2018-01-15T11:10:06.424Z,3.50
2018-01-15T11:11:06.397Z,2.60
2018-01-15T11:12:06.365Z,2.90
2018-01-15T11:13:06.344Z,3.40
2018-01-15T11:14:06.325Z,2.90
2018-01-15T11:15:06.318Z,3.40
2018-01-15T11:16:06.325Z,3.60
2018-01-15T11:17:06.298Z,3.40
2018-01-15T11:18:06.282Z,3.70
2018-01-15T11:19:06.266Z,3.70
2018-01-15T11:20:06.225Z,2.80
2018-01-15T11:21:06.230Z,4.20
2018-01-15T11:22:06.186Z,3.20
2018-01-15T11:23:06.165Z,3.70
2018-01-15T11:24:06.203Z,4.30
2018-01-15T11:25:06.160Z,4.30
2018-01-15T11:26:06.142Z,3.50
2018-01-15T11:27:06.124Z,3.40
2018-01-15T11:28:06.082Z,3.80
2018-01-15T11:29:06.064Z,3.00
2018-01-15T11:30:06.072Z,3.70
2018-01-15T11:31:06.056Z,3.50
2018-01-15T11:32:06.035Z,4.70
2018-01-15T11:33:05.994Z,2.60
2018-01-15T11:34:05.990Z,2.50
2018-01-15T11:35:05.959Z,2.30
2018-01-15T11:36:05.945Z,3.30
2018-01-15T11:37:05.955Z,2.50
2018-01-15T11:38:05.909Z,2.00
2018-01-15T11:39:05.917Z,2.20
2018-01-15T11:40:05.901Z,4.10
2018-01-15T11:41:05.885Z,2.60
2018-01-15T11:42:05.870Z,2.80
2018-01-15T11:43:05.823Z,2.20
2018-01-15T11:44:05.809Z,2.60
2018-01-15T11:45:05.787Z,3.50
2018-01-15T11:46:05.771Z,3.00
2018-01-15T11:47:05.757Z,2.50
2018-01-15T11:48:05.766Z,2.40
2018-01-15T11:49:05.722Z,2.40
2018-01-15T11:50:05.708Z,1.90
2018-01-15T11:51:05.688Z,2.60
2018-01-15T11:52:05.686Z,2.40
2018-01-15T11:53:05.683Z,2.50
2018-01-15T11:54:05.654Z,2.20
2018-01-15T11:55:05.651Z,2.20
2018-01-15T11:56:05.640Z,3.20
2018-01-15T11:57:05.611Z,2.50
2018-01-15T11:58:05.589Z,2.70
2018-01-15T11:59:05.561Z,3.60
2018-01-15T12:00:05.548Z,2.80
2018-01-15T12:01:05.543Z,3.20
2018-01-15T12:02:05.528Z,2.60
2018-01-15T12:03:05.499Z,3.10
2018-01-15T12:04:05.492Z,2.60
2018-01-15T12:05:05.486Z,5.00
2018-01-15T12:06:05.483Z,3.10
2018-01-15T12:07:05.436Z,5.10
2018-01-15T12:08:05.423Z,2.00
2018-01-15T12:09:05.431Z,2.40
2018-01-15T12:10:05.417Z,2.40
2018-01-15T12:11:05.402Z,3.00
2018-01-15T12:12:05.359Z,2.00
2018-01-15T12:13:05.342Z,3.50
2018-01-15T12:14:05.330Z,2.30
2018-01-15T12:15:05.343Z,2.50
2018-01-15T12:16:05.324Z,2.90
2018-01-15T12:17:05.283Z,2.20
2018-01-15T12:18:05.266Z,2.40
2018-01-15T12:19:05.274Z,2.90
2018-01-15T12:20:05.260Z,4.30
2018-01-15T12:21:05.249Z,2.70
2018-01-15T12:22:05.232Z,3.30
2018-01-15T12:23:05.210Z,3.20
2018-01-15T12:24:05.178Z,4.60
2018-01-15T12:25:05.159Z,3.10
2018-01-15T12:26:05.140Z,3.40
2018-01-15T12:27:05.127Z,3.70
2018-01-15T12:28:05.112Z,3.00
2018-01-15T12:29:05.121Z,3.00
2018-01-15T12:30:05.106Z,3.00
2018-01-15T12:31:05.066Z,2.60
2018-01-15T12:32:05.049Z,2.80
2018-01-15T12:33:05.034Z,3.00
2018-01-15T12:34:05.016Z,3.20
2018-01-15T12:35:05.005Z,3.30
2018-01-15T12:36:04.997Z,3.50
2018-01-15T12:37:04.982Z,3.50
2018-01-15T12:38:04.985Z,3.90
2018-01-15T12:39:04.939Z,4.70
2018-01-15T12:40:04.953Z,5.00
2018-01-15T12:41:04.908Z,5.50
2018-01-15T12:42:04.925Z,5.10
2018-01-15T12:43:04.875Z,4.90
2018-01-15T12:44:04.899Z,5.40
2018-01-15T12:45:04.863Z,4.90
2018-01-15T12:46:04.832Z,5.50
2018-01-15T12:47:04.825Z,5.20
2018-01-15T12:48:04.827Z,5.00
2018-01-15T12:49:04.787Z,5.50
2018-01-15T12:50:04.794Z,4.90
2018-01-15T12:51:04.755Z,5.60
2018-01-15T12:52:04.762Z,5.10
2018-01-15T12:53:04.722Z,4.50
2018-01-15T12:54:04.708Z,4.80
2018-01-15T12:55:04.693Z,4.50
2018-01-15T12:56:04.670Z,4.10
2018-01-15T12:57:04.661Z,4.60
2018-01-15T12:58:04.649Z,4.60
2018-01-15T12:59:04.638Z,5.50
2018-01-15T13:00:04.642Z,4.30
2018-01-15T13:01:04.601Z,4.50
2018-01-15T13:02:04.593Z,4.40
2018-01-15T13:03:04.579Z,3.70
2018-01-15T13:04:04.584Z,3.40
2018-01-15T13:05:04.540Z,3.40
2018-01-15T13:06:04.524Z,3.50
2018-01-15T13:07:04.517Z,4.20
2018-01-15T13:08:04.508Z,4.60
2018-01-15T13:09:04.505Z,4.40
2018-01-15T13:10:04.490Z,4.10
2018-01-15T13:11:04.465Z,4.50
2018-01-15T13:12:04.462Z,5.20
2018-01-15T13:13:04.428Z,4.00
2018-01-15T13:14:04.436Z,4.10
2018-01-15T13:15:04.416Z,3.80
2018-01-15T13:16:04.377Z,3.90
2018-01-15T13:17:04.376Z,4.20
2018-01-15T13:18:04.361Z,3.40